Time;durP1;ratioP1;P1;durP2;ratioP2;P2;SDS_P1;SDS_P2;PMS_P1;PMS_P2;Temp;Humidity;BMP_temperature;BMP_pressure;BME280_temperature;BME280_humidity;BME280_pressure;Samples;Min_cycle;Max_cycle;Signal;HPM_P1;HPM_P2
2022/03/21 00:01:25;;;;;;;19.33;11.47;;;;;;;1.59;52.94;103077.97;4975402;28;20065;-77
2022/03/21 00:03:55;;;;;;;21.87;11.43;;;;;;;1.49;51.98;103069.56;4972461;28;20432;-76
2022/03/21 00:06:22;;;;;;;16.80;11.07;;;;;;;1.54;52.61;103075.94;4992177;28;20316;-76
2022/03/21 00:08:52;;;;;;;19.43;12.03;;;;;;;1.54;53.21;103069.00;4956445;28;20043;-76
2022/03/21 00:11:18;;;;;;;19.50;11.40;;;;;;;1.54;53.20;103063.81;4983430;28;20068;-76
2022/03/21 00:13:49;;;;;;;16.00;11.07;;;;;;;1.49;53.28;103073.06;5007762;28;20100;-76
2022/03/21 00:16:16;;;;;;;21.63;10.10;;;;;;;1.32;55.46;103071.22;4976021;28;20065;-76
2022/03/21 00:18:46;;;;;;;15.60;10.50;;;;;;;1.26;55.23;103066.59;4986898;28;20637;-76
2022/03/21 00:21:15;;;;;;;18.47;10.63;;;;;;;1.45;54.81;103070.22;4985640;28;20494;-76
2022/03/21 00:23:42;;;;;;;16.67;11.40;;;;;;;1.27;54.50;103071.00;4957858;28;20042;-77
2022/03/21 00:26:10;;;;;;;15.00;10.40;;;;;;;1.28;55.20;103066.69;4987616;28;20042;-77
2022/03/21 00:28:37;;;;;;;18.47;11.73;;;;;;;1.15;54.83;103066.78;4985385;28;20513;-76
2022/03/21 00:31:04;;;;;;;19.80;12.73;;;;;;;1.17;54.24;103066.06;4993837;28;20092;-76
2022/03/21 00:33:31;;;;;;;19.43;12.40;;;;;;;1.31;55.11;103064.22;4981487;28;20161;-77
2022/03/21 00:35:58;;;;;;;19.83;11.13;;;;;;;1.18;55.43;103062.66;4996074;28;20049;-77
2022/03/21 00:38:28;;;;;;;18.67;11.80;;;;;;;1.19;55.34;103061.84;4993470;28;20150;-76
2022/03/21 00:41:04;;;;;;;16.70;11.23;;;;;;;1.17;54.88;103060.84;5004042;28;20073;-77
2022/03/21 00:43:31;;;;;;;17.27;11.07;;;;;;;1.12;55.54;103060.59;4991342;28;20105;-77
2022/03/21 00:45:57;;;;;;;18.43;11.13;;;;;;;1.10;55.94;103067.44;4991115;28;20043;-77
2022/03/21 00:48:27;;;;;;;18.37;11.63;;;;;;;1.07;55.30;103055.94;4972529;28;20050;-76
2022/03/21 00:50:55;;;;;;;21.47;10.60;;;;;;;0.98;56.52;103058.91;4959755;28;20153;-77
2022/03/21 00:53:22;;;;;;;20.67;11.70;;;;;;;0.96;56.09;103062.25;4960842;28;20057;-77
2022/03/21 00:55:49;;;;;;;19.47;12.10;;;;;;;1.07;55.29;103062.03;4978281;28;20042;-77
2022/03/21 00:58:17;;;;;;;20.67;12.90;;;;;;;0.88;55.57;103066.13;4993608;28;20053;-77
2022/03/21 01:00:44;;;;;;;17.20;11.57;;;;;;;0.90;55.97;103062.78;4978044;28;20049;-77
2022/03/21 01:03:11;;;;;;;17.93;11.43;;;;;;;0.94;55.02;103064.78;4970446;28;20042;-76
2022/03/21 01:05:38;;;;;;;20.80;11.63;;;;;;;1.04;55.69;103066.19;4975997;28;20578;-76
2022/03/21 01:08:05;;;;;;;19.43;12.03;;;;;;;0.92;56.80;103062.88;4973084;28;20038;-77
2022/03/21 01:10:32;;;;;;;23.83;12.27;;;;;;;1.01;57.01;103059.13;4982622;28;20156;-77
2022/03/21 01:13:00;;;;;;;18.83;12.27;;;;;;;0.97;56.51;103048.44;4991420;28;20045;-77
2022/03/21 01:15:27;;;;;;;19.03;11.83;;;;;;;0.79;56.90;103056.09;4989321;28;20544;-77
2022/03/21 01:17:55;;;;;;;17.33;11.50;;;;;;;0.67;57.50;103058.84;4978601;28;20053;-77
2022/03/21 01:20:22;;;;;;;22.83;12.57;;;;;;;0.76;58.20;103058.53;4991532;28;20030;-77
2022/03/21 01:22:49;;;;;;;22.30;11.43;;;;;;;0.82;56.27;103051.94;4977615;28;20038;-77
2022/03/21 01:25:16;;;;;;;24.93;11.83;;;;;;;0.66;57.07;103049.25;4965647;28;20493;-77
2022/03/21 01:27:43;;;;;;;23.40;12.83;;;;;;;0.66;57.58;103053.56;4976541;28;20046;-77
2022/03/21 01:30:12;;;;;;;23.03;11.80;;;;;;;0.62;58.91;103054.22;4993695;28;20038;-77
2022/03/21 01:32:42;;;;;;;20.60;12.53;;;;;;;0.65;57.99;103054.38;4977230;28;20572;-77
2022/03/21 01:35:11;;;;;;;19.50;12.20;;;;;;;0.60;58.52;103051.53;5004879;28;20034;-77
2022/03/21 01:37:38;;;;;;;21.93;12.37;;;;;;;0.60;57.57;103046.31;4977005;28;20070;-78
2022/03/21 01:40:05;;;;;;;18.80;11.77;;;;;;;0.77;57.84;103044.69;4984390;28;20034;-77
2022/03/21 01:42:32;;;;;;;24.40;13.03;;;;;;;0.72;56.97;103047.03;4976792;28;20095;-77
2022/03/21 01:44:58;;;;;;;21.73;12.93;;;;;;;0.63;56.75;103048.19;4992297;28;20038;-77
2022/03/21 01:47:25;;;;;;;19.43;12.17;;;;;;;0.72;57.37;103048.72;4994360;28;20041;-77
2022/03/21 01:49:52;;;;;;;21.93;13.00;;;;;;;0.69;56.47;103043.34;4993502;28;20073;-77
2022/03/21 01:52:20;;;;;;;19.33;12.20;;;;;;;0.67;56.68;103042.34;4961132;28;20488;-77
2022/03/21 01:57:33;;;;;;;21.70;12.60;;;;;;;0.70;55.87;103051.25;4979888;28;20497;-77
2022/03/21 02:00:00;;;;;;;19.83;11.83;;;;;;;0.88;55.45;103035.78;4976921;28;20425;-77
2022/03/21 02:02:27;;;;;;;21.70;13.10;;;;;;;0.73;56.57;103043.59;4993098;28;20395;-77
2022/03/21 02:04:54;;;;;;;18.57;12.20;;;;;;;0.73;55.79;103034.91;4968560;28;20045;-77
2022/03/21 02:07:21;;;;;;;20.00;11.97;;;;;;;0.57;57.07;103031.41;4977954;28;20521;-76
2022/03/21 02:09:47;;;;;;;27.93;13.20;;;;;;;0.66;56.66;103030.16;4975349;28;20100;-77
2022/03/21 02:12:15;;;;;;;18.53;13.10;;;;;;;0.50;56.92;103026.66;4985508;28;20112;-77
2022/03/21 02:14:42;;;;;;;21.67;13.00;;;;;;;0.53;57.06;103037.25;4991281;28;20405;-77
2022/03/21 02:17:10;;;;;;;20.63;11.60;;;;;;;0.49;58.44;103035.28;4978157;28;20052;-76
2022/03/21 02:19:38;;;;;;;18.43;12.20;;;;;;;0.44;58.34;103030.63;4989569;28;20058;-76
2022/03/21 02:22:16;;;;;;;19.13;12.00;;;;;;;0.26;59.80;103028.75;4992523;28;20037;-76
2022/03/21 02:24:42;;;;;;;23.67;12.47;;;;;;;0.17;59.56;103040.25;4989070;28;20034;-76
2022/03/21 02:27:10;;;;;;;20.60;12.03;;;;;;;0.12;60.69;103039.13;4992043;28;20574;-77
2022/03/21 02:29:37;;;;;;;21.93;12.70;;;;;;;0.14;59.53;103038.38;4992861;28;20667;-77
2022/03/21 02:32:05;;;;;;;21.00;12.43;;;;;;;0.19;60.64;103039.56;4993682;28;20069;-76
2022/03/21 02:34:36;;;;;;;23.33;13.07;;;;;;;0.23;61.57;103030.25;4993196;28;20037;-77
2022/03/21 02:37:04;;;;;;;21.80;13.37;;;;;;;0.01;61.23;103034.97;4977123;28;20101;-77
2022/03/21 02:39:31;;;;;;;20.13;12.73;;;;;;;-0.13;61.27;103032.44;4999343;28;20046;-76
2022/03/21 02:41:57;;;;;;;25.10;13.00;;;;;;;-0.06;63.65;103033.72;4976353;28;20508;-77
2022/03/21 02:44:24;;;;;;;21.67;12.77;;;;;;;-0.13;62.68;103035.03;4970259;28;20042;-76
2022/03/21 02:46:51;;;;;;;20.33;12.60;;;;;;;-0.08;63.21;103027.53;4958508;28;20051;-77
2022/03/21 02:49:18;;;;;;;22.67;12.77;;;;;;;-0.23;62.03;103035.28;4979285;28;20042;-77
2022/03/21 02:51:45;;;;;;;20.40;12.80;;;;;;;-0.43;63.05;103036.63;4976033;28;20041;-77
2022/03/21 02:54:13;;;;;;;20.57;12.43;;;;;;;-0.37;62.64;103031.81;4988015;28;20041;-77
2022/03/21 02:56:40;;;;;;;23.50;13.37;;;;;;;-0.36;61.48;103035.31;4959284;28;20042;-77
2022/03/21 02:59:07;;;;;;;24.27;13.80;;;;;;;-0.30;60.17;103031.41;5009822;28;20037;-77
2022/03/21 03:01:33;;;;;;;21.97;12.03;;;;;;;-0.51;61.65;103030.06;4976269;28;20444;-76
2022/03/21 03:04:00;;;;;;;23.30;13.00;;;;;;;-0.58;62.51;103040.88;4975871;28;20138;-76
2022/03/21 03:06:27;;;;;;;21.70;13.90;;;;;;;-0.74;63.28;103028.63;4977480;28;20420;-77
2022/03/21 03:08:54;;;;;;;22.07;12.47;;;;;;;-0.66;63.22;103029.13;4990728;28;20111;-77
2022/03/21 03:11:21;;;;;;;24.43;12.57;;;;;;;-0.64;64.67;103023.22;4964952;28;20125;-77
2022/03/21 03:13:48;;;;;;;18.70;11.83;;;;;;;-0.75;65.57;103028.53;4958371;28;20049;-76
2022/03/21 03:16:14;;;;;;;22.43;12.33;;;;;;;-0.74;64.65;103026.03;4959075;28;20728;-77
2022/03/21 03:18:44;;;;;;;21.10;12.03;;;;;;;-0.79;65.72;103027.44;4958769;28;20053;-77
2022/03/21 03:21:13;;;;;;;21.20;13.00;;;;;;;-0.87;66.65;103024.34;4977511;28;20136;-78
2022/03/21 03:23:40;;;;;;;20.83;12.40;;;;;;;-0.93;66.71;103029.13;4983753;28;20034;-77
2022/03/21 03:26:07;;;;;;;19.17;12.07;;;;;;;-0.82;65.37;103026.34;4976281;28;20501;-77
2022/03/21 03:28:34;;;;;;;18.50;11.87;;;;;;;-0.82;65.73;103024.66;4975633;28;20142;-77
2022/03/21 03:31:17;;;;;;;23.17;13.07;;;;;;;-0.91;64.87;103026.66;4969967;28;20038;-77
2022/03/21 03:33:45;;;;;;;22.73;13.20;;;;;;;-0.80;64.25;103027.34;4972994;28;20109;-77
2022/03/21 03:36:16;;;;;;;20.97;13.93;;;;;;;-0.79;65.61;103030.03;4961111;28;20050;-77
2022/03/21 03:38:44;;;;;;;20.50;12.70;;;;;;;-0.88;64.87;103030.34;4972002;28;20039;-77
2022/03/21 03:41:11;;;;;;;25.70;13.97;;;;;;;-0.77;63.91;103027.53;4976250;28;20076;-76
2022/03/21 03:43:38;;;;;;;25.13;15.17;;;;;;;-0.95;65.30;103024.66;5009313;28;20567;-77
2022/03/21 03:46:05;;;;;;;23.50;13.27;;;;;;;-0.88;64.95;103019.06;4976601;28;20042;-77
2022/03/21 03:48:32;;;;;;;23.70;13.83;;;;;;;-1.00;66.16;103020.88;4974764;28;21315;-77
2022/03/21 03:50:59;;;;;;;22.87;12.57;;;;;;;-1.05;65.75;103017.97;4992158;28;20042;-77
2022/03/21 03:53:25;;;;;;;21.93;12.50;;;;;;;-1.11;66.15;103029.66;4975066;28;20049;-77
2022/03/21 03:55:52;;;;;;;22.63;13.90;;;;;;;-1.19;66.17;103035.22;4972096;28;20065;-77
2022/03/21 03:58:18;;;;;;;18.67;12.27;;;;;;;-1.27;67.46;103030.34;4986368;28;20092;-76
2022/03/21 04:00:46;;;;;;;20.70;12.40;;;;;;;-1.33;68.01;103038.66;4975342;28;20069;-77
2022/03/21 04:06:03;;;;;;;19.67;11.77;;;;;;;-1.35;67.71;103026.34;4996636;28;20405;-77
2022/03/21 04:08:30;;;;;;;21.43;12.63;;;;;;;-1.35;68.34;103031.53;4991145;28;20673;-76
2022/03/21 04:10:56;;;;;;;23.83;13.30;;;;;;;-1.34;68.64;103028.19;4974761;28;20042;-77
2022/03/21 04:13:23;;;;;;;22.93;12.77;;;;;;;-1.37;68.22;103023.66;4991056;28;20425;-77
2022/03/21 04:15:49;;;;;;;23.03;13.10;;;;;;;-1.47;69.36;103022.16;4992546;28;20096;-76
2022/03/21 04:18:16;;;;;;;21.60;12.07;;;;;;;-1.43;69.74;103023.25;4989380;28;20501;-76
2022/03/21 04:20:43;;;;;;;17.30;11.47;;;;;;;-1.57;70.83;103031.84;4975171;28;20123;-77
2022/03/21 04:23:11;;;;;;;26.07;13.80;;;;;;;-1.48;71.61;103027.25;4958998;28;20053;-77
2022/03/21 04:25:38;;;;;;;21.73;12.43;;;;;;;-1.37;71.85;103022.78;4987945;28;20042;-77
2022/03/21 04:28:11;;;;;;;24.43;12.73;;;;;;;-1.50;72.35;103027.16;4976031;28;20050;-78
2022/03/21 04:30:38;;;;;;;21.43;11.67;;;;;;;-1.52;72.21;103033.00;4972987;28;20097;-76
2022/03/21 04:33:05;;;;;;;20.90;12.10;;;;;;;-1.67;72.61;103029.44;5005253;28;20069;-78
2022/03/21 04:35:32;;;;;;;19.13;11.43;;;;;;;-1.69;73.11;103039.66;4972730;28;20089;-76
2022/03/21 04:37:58;;;;;;;25.30;13.00;;;;;;;-1.77;74.01;103033.97;4975596;28;20065;-76
2022/03/21 04:40:25;;;;;;;19.33;11.70;;;;;;;-1.70;73.36;103038.75;4990424;28;20042;-78
2022/03/21 04:42:52;;;;;;;19.63;12.40;;;;;;;-1.75;73.63;103040.16;4992652;28;20038;-77
2022/03/21 04:45:20;;;;;;;23.77;12.17;;;;;;;-1.83;73.61;103049.13;4975347;28;20069;-76
2022/03/21 04:47:46;;;;;;;22.10;13.23;;;;;;;-1.85;73.68;103044.59;4970519;28;20100;-76
2022/03/21 04:50:13;;;;;;;24.03;13.23;;;;;;;-1.72;72.60;103048.13;4986156;28;20038;-78
2022/03/21 04:52:40;;;;;;;21.43;11.80;;;;;;;-1.77;72.08;103046.91;4982926;28;20042;-75
2022/03/21 04:55:07;;;;;;;19.70;12.13;;;;;;;-1.77;73.23;103046.03;4974946;28;20045;-75
2022/03/21 04:57:40;;;;;;;20.90;12.30;;;;;;;-1.86;71.90;103048.88;4993411;28;20041;-75
2022/03/21 05:00:07;;;;;;;25.53;13.53;;;;;;;-1.91;72.47;103046.81;4991073;28;20095;-75
2022/03/21 05:02:33;;;;;;;22.37;12.87;;;;;;;-1.95;72.00;103047.38;4974175;28;20041;-75
2022/03/21 05:05:00;;;;;;;26.13;13.53;;;;;;;-2.01;71.83;103045.28;5008509;28;20038;-75
2022/03/21 05:07:27;;;;;;;22.87;12.40;;;;;;;-2.07;71.90;103048.34;4961570;28;20051;-75
2022/03/21 05:09:54;;;;;;;25.00;13.80;;;;;;;-2.15;72.57;103051.19;4974447;28;20045;-76
2022/03/21 05:12:22;;;;;;;21.10;12.63;;;;;;;-2.15;72.06;103048.59;4974036;28;20034;-75
2022/03/21 05:14:48;;;;;;;21.67;13.20;;;;;;;-2.20;72.78;103055.13;4976497;28;20105;-76
2022/03/21 05:17:17;;;;;;;21.60;12.83;;;;;;;-2.14;72.84;103047.81;4977932;28;20034;-75
2022/03/21 05:19:44;;;;;;;20.67;12.80;;;;;;;-2.13;72.91;103047.00;4975533;28;21763;-75
2022/03/21 05:22:11;;;;;;;22.30;12.20;;;;;;;-2.05;73.69;103044.16;4982608;28;20459;-75
2022/03/21 05:35:55;;;;;;;23.20;13.57;;;;;;;-2.17;74.97;103070.91;4941474;28;20713;-75
2022/03/21 05:38:24;;;;;;;23.40;12.90;;;;;;;-2.09;75.33;103061.97;4986036;28;20153;-75
2022/03/21 05:40:52;;;;;;;20.80;12.90;;;;;;;-1.99;74.91;103064.41;4977425;28;20455;-75
2022/03/21 05:43:19;;;;;;;23.70;13.60;;;;;;;-2.04;74.63;103064.06;4976393;28;20073;-75
2022/03/21 05:45:47;;;;;;;27.00;13.90;;;;;;;-1.98;74.90;103074.88;4958035;28;20050;-75
2022/03/21 14:26:29;;;;;;;12.23;8.48;;;;;;;13.24;22.05;102792.78;5044381;23;20056;-85
2022/03/21 14:28:04;;;;;;;12.38;9.65;;;;;;;13.05;22.16;102786.50;4994211;28;20073;-83
2022/03/21 14:30:36;;;;;;;12.25;8.30;;;;;;;13.12;22.74;102784.78;5001928;28;20044;-84
2022/03/21 14:33:03;;;;;;;11.85;8.43;;;;;;;13.04;24.04;102786.50;4981574;28;20037;-84
2022/03/21 14:35:30;;;;;;;15.32;10.05;;;;;;;13.15;22.51;102788.31;4979296;28;20104;-85
2022/03/21 14:37:56;;;;;;;14.00;9.45;;;;;;;13.10;22.54;102786.50;4975428;28;20046;-84
2022/03/21 14:40:23;;;;;;;12.52;9.20;;;;;;;13.19;22.92;102774.16;4963942;28;20054;-83
2022/03/21 14:42:50;;;;;;;13.73;8.45;;;;;;;13.23;23.94;102770.66;4980053;28;20057;-85
2022/03/21 14:45:17;;;;;;;13.43;8.85;;;;;;;13.23;23.75;102773.31;4976682;28;20050;-84
2022/03/21 14:47:44;;;;;;;16.48;9.52;;;;;;;13.34;23.63;102761.81;4976038;28;20146;-84
2022/03/21 14:50:12;;;;;;;11.90;8.75;;;;;;;13.31;23.20;102765.38;4960591;28;20116;-84
2022/03/21 14:52:39;;;;;;;14.57;8.90;;;;;;;13.36;22.65;102768.91;4973710;28;20046;-83
2022/03/21 14:55:06;;;;;;;12.98;8.52;;;;;;;13.36;22.89;102768.91;4995927;28;20092;-83
2022/03/21 14:57:34;;;;;;;25.40;9.43;;;;;;;13.36;23.59;102760.06;4966012;28;20050;-84
2022/03/21 15:00:01;;;;;;;13.48;8.73;;;;;;;13.45;23.18;102755.66;4980024;28;20053;-83
2022/03/21 15:02:28;;;;;;;14.02;9.38;;;;;;;13.42;22.64;102757.41;4977671;28;20042;-82
2022/03/21 15:04:58;;;;;;;11.07;8.27;;;;;;;13.42;22.63;102760.06;4978466;28;20859;-81
2022/03/21 15:07:28;;;;;;;11.23;8.82;;;;;;;13.33;23.21;102755.63;4985528;28;20042;-82
2022/03/21 15:12:40;;;;;;;12.73;8.88;;;;;;;13.33;23.05;102752.97;4982326;28;20042;-83
2022/03/21 15:15:07;;;;;;;10.57;7.88;;;;;;;13.32;23.65;102751.22;4994566;28;20061;-83
2022/03/21 15:17:35;;;;;;;14.90;8.75;;;;;;;13.30;22.99;102750.34;4979362;28;20064;-83
2022/03/21 15:20:05;;;;;;;11.93;8.32;;;;;;;13.21;23.16;102750.31;4975217;28;20110;-84
2022/03/21 15:22:33;;;;;;;12.85;8.30;;;;;;;13.18;23.07;102751.13;4989203;28;20042;-83
2022/03/21 15:25:01;;;;;;;10.38;8.07;;;;;;;13.12;23.85;102755.56;4977912;28;20050;-83
2022/03/21 15:27:48;;;;;;;11.30;7.60;;;;;;;13.15;23.18;102747.59;4962238;28;20122;-83
2022/03/21 15:30:16;;;;;;;10.10;7.93;;;;;;;13.07;23.21;102749.34;4974438;28;20050;-82
2022/03/21 15:32:44;;;;;;;11.32;7.93;;;;;;;12.96;23.99;102744.91;4946458;28;20091;-82
2022/03/21 15:35:12;;;;;;;11.77;9.27;;;;;;;12.95;24.05;102745.81;4978361;28;20517;-82
2022/03/21 15:43:14;;;;;;;16.80;8.25;;;;;;;12.80;24.03;102737.78;4987864;28;20042;-83
2022/03/21 15:45:40;;;;;;;38.67;11.32;;;;;;;12.75;23.64;102738.63;4963537;28;20041;-82
2022/03/21 15:48:07;;;;;;;12.63;8.43;;;;;;;12.65;23.19;102740.38;4975291;28;20414;-81
2022/03/21 15:50:36;;;;;;;10.18;7.95;;;;;;;12.62;24.47;102745.69;4974634;28;20457;-81
2022/03/21 15:53:04;;;;;;;10.82;7.95;;;;;;;12.49;24.27;102747.38;4988794;28;20038;-82
2022/03/21 15:55:32;;;;;;;11.95;8.02;;;;;;;12.35;24.66;102743.75;4977747;28;20129;-82
2022/03/21 15:58:00;;;;;;;12.98;8.52;;;;;;;12.34;24.34;102739.31;4967502;28;20104;-82
2022/03/21 16:00:29;;;;;;;10.85;8.20;;;;;;;12.31;24.30;102741.97;4961361;28;20048;-84
2022/03/21 16:03:15;;;;;;;11.32;8.27;;;;;;;12.10;26.34;102734.75;4970289;28;20065;-82
2022/03/21 16:05:43;;;;;;;8.90;7.68;;;;;;;12.05;25.21;102741.81;4946263;28;20532;-82
2022/03/21 16:08:11;;;;;;;13.10;8.40;;;;;;;12.02;25.26;102742.69;4957945;28;20084;-82
2022/03/21 16:10:39;;;;;;;10.73;8.25;;;;;;;11.92;24.91;102742.59;4962084;28;20046;-81
2022/03/21 16:13:05;;;;;;;9.68;7.80;;;;;;;11.94;24.59;102744.41;4961210;28;20509;-83
2022/03/21 16:15:34;;;;;;;11.40;8.52;;;;;;;11.82;25.77;102742.53;4960798;28;20046;-83
2022/03/21 16:18:02;;;;;;;11.32;7.63;;;;;;;11.70;25.46;102736.22;4995542;28;20042;-83
2022/03/21 16:20:28;;;;;;;11.88;8.43;;;;;;;11.66;25.92;102745.91;4998015;28;20596;-83
2022/03/21 16:22:55;;;;;;;15.77;9.15;;;;;;;11.60;26.31;102748.47;4972614;28;20100;-84
2022/03/21 16:25:22;;;;;;;28.75;10.15;;;;;;;11.47;27.21;102749.25;4960948;28;20054;-82
2022/03/21 16:27:49;;;;;;;20.30;9.32;;;;;;;11.44;26.35;102741.31;4957846;28;20109;-82
2022/03/21 16:30:15;;;;;;;19.77;8.85;;;;;;;11.36;26.54;102743.88;4945801;28;20054;-84
2022/03/21 16:32:42;;;;;;;15.68;9.93;;;;;;;11.30;26.81;102751.75;4957297;28;20039;-84
2022/03/21 16:35:10;;;;;;;22.63;14.38;;;;;;;11.20;27.31;102753.41;4939650;28;20118;-83
2022/03/21 16:37:37;;;;;;;13.88;8.98;;;;;;;11.09;26.33;102751.50;4957213;28;20085;-84
2022/03/21 16:40:06;;;;;;;12.38;9.10;;;;;;;10.96;26.79;102750.50;4977048;28;20106;-82
2022/03/21 16:42:34;;;;;;;15.82;10.40;;;;;;;11.00;26.98;102742.59;4952558;28;20130;-83
2022/03/21 16:45:06;;;;;;;13.20;9.35;;;;;;;10.97;27.35;102747.00;4964722;28;20038;-83
2022/03/21 16:47:35;;;;;;;16.23;10.18;;;;;;;10.83;27.93;102745.94;4972218;28;20053;-81
2022/03/21 16:50:03;;;;;;;13.82;9.23;;;;;;;10.76;27.71;102749.38;4953934;28;20099;-81
2022/03/21 16:52:30;;;;;;;14.23;9.98;;;;;;;10.54;28.71;102751.75;4938200;28;20062;-85
2022/03/21 16:54:57;;;;;;;13.18;8.30;;;;;;;10.33;29.25;102752.34;4939960;28;20046;-83
2022/03/21 16:57:24;;;;;;;12.77;8.88;;;;;;;10.22;29.97;102756.59;4971279;28;20054;-81
2022/03/21 16:59:50;;;;;;;12.43;8.90;;;;;;;10.01;30.72;102766.81;4957325;28;20497;-83
2022/03/21 17:02:21;;;;;;;12.93;8.48;;;;;;;9.81;30.41;102761.19;4974057;28;20051;-82
2022/03/21 17:04:49;;;;;;;12.88;7.97;;;;;;;9.66;30.20;102761.81;4972901;28;20046;-82
2022/03/21 17:07:16;;;;;;;12.15;8.02;;;;;;;9.57;30.38;102770.47;4983789;28;20145;-81
2022/03/21 17:09:46;;;;;;;14.07;8.30;;;;;;;9.36;31.09;102771.88;4972774;28;20038;-82
2022/03/21 17:12:13;;;;;;;13.02;8.30;;;;;;;9.25;31.36;102771.69;4961143;28;20043;-82
2022/03/21 17:14:45;;;;;;;12.98;9.25;;;;;;;9.19;31.96;102776.81;4945810;28;20051;-80
2022/03/21 17:17:12;;;;;;;10.65;7.20;;;;;;;8.89;32.89;102770.06;4988654;28;20104;-80
2022/03/21 17:25:10;;;;;;;11.10;7.03;;;;;;;8.33;33.66;102779.41;4986040;28;20081;-84
2022/03/21 17:27:38;;;;;;;10.03;6.43;;;;;;;8.17;34.09;102773.78;4969955;28;20454;-83
2022/03/21 17:30:08;;;;;;;9.00;7.00;;;;;;;8.00;34.45;102771.59;5016976;28;20038;-83
2022/03/21 17:32:35;;;;;;;11.13;7.83;;;;;;;7.91;34.66;102772.28;4962630;28;20050;-83
2022/03/21 17:35:04;;;;;;;9.07;6.03;;;;;;;7.80;35.34;102779.00;4983759;28;20046;-83
2022/03/21 17:37:32;;;;;;;8.60;7.10;;;;;;;7.73;36.06;102780.56;4983186;28;20452;-82
2022/03/21 17:39:58;;;;;;;10.80;7.00;;;;;;;7.55;35.29;102791.53;4990379;28;20097;-81
2022/03/21 17:42:27;;;;;;;8.90;6.20;;;;;;;7.43;36.08;102787.69;4959639;28;20042;-81
2022/03/21 17:44:55;;;;;;;10.70;6.67;;;;;;;7.32;37.64;102788.31;4974003;28;20138;-83
2022/03/21 17:47:24;;;;;;;8.60;6.77;;;;;;;7.19;37.64;102790.56;4962140;28;20061;-84
2022/03/21 17:49:50;;;;;;;13.60;8.33;;;;;;;7.05;37.72;102798.94;4972000;28;20042;-83
2022/03/21 17:52:18;;;;;;;9.47;7.20;;;;;;;6.80;37.59;102791.19;4965425;28;20049;-82
2022/03/21 17:54:46;;;;;;;9.47;7.23;;;;;;;6.71;37.75;102796.19;4973282;28;20042;-83
2022/03/21 17:57:13;;;;;;;11.23;7.07;;;;;;;6.66;37.93;102790.81;4983986;28;20041;-82
2022/03/21 17:59:40;;;;;;;10.87;6.90;;;;;;;6.60;38.11;102795.88;4964102;28;20046;-85
2022/03/21 18:02:07;;;;;;;9.97;7.40;;;;;;;6.36;37.76;102801.25;4980073;28;20073;-83
2022/03/21 18:04:35;;;;;;;10.97;8.10;;;;;;;6.30;38.10;102792.28;4970177;28;20130;-83
2022/03/21 18:07:02;;;;;;;9.73;6.93;;;;;;;6.12;39.10;102789.97;4979214;28;20102;-81
2022/03/21 18:09:29;;;;;;;10.23;6.53;;;;;;;5.99;40.65;102796.59;4961980;28;20053;-81
2022/03/21 18:11:56;;;;;;;9.10;6.83;;;;;;;5.77;41.11;102805.44;4982382;28;20054;-82
2022/03/21 18:14:25;;;;;;;10.50;6.50;;;;;;;5.71;41.49;102801.72;4981579;28;20034;-82
2022/03/21 18:16:52;;;;;;;9.50;6.33;;;;;;;5.70;41.44;102807.81;4998106;28;20465;-82
2022/03/21 18:21:53;;;;;;;8.47;6.23;;;;;;;5.54;42.43;102809.00;4984468;28;20041;-84
2022/03/21 18:24:30;;;;;;;9.63;7.00;;;;;;;5.41;43.62;102806.81;4964613;28;20046;-83
2022/03/21 18:26:57;;;;;;;10.18;7.22;;;;;;;5.30;42.92;102804.72;5000119;28;20062;-84
2022/03/21 18:29:24;;;;;;;10.67;7.40;;;;;;;5.29;42.68;102815.13;4978157;28;20046;-82
2022/03/21 18:31:54;;;;;;;8.67;6.40;;;;;;;5.29;42.46;102809.88;4978768;28;20046;-83
2022/03/21 18:34:21;;;;;;;8.47;6.40;;;;;;;5.04;43.19;102816.88;4980948;28;20041;-82
2022/03/21 18:36:49;;;;;;;8.97;6.60;;;;;;;4.98;44.35;102807.91;4980578;28;20076;-83
2022/03/21 18:39:16;;;;;;;9.53;6.40;;;;;;;4.88;44.69;102819.75;4980633;28;20405;-82
2022/03/21 18:41:43;;;;;;;10.13;6.77;;;;;;;4.84;45.06;102802.13;4961072;28;20054;-82
2022/03/21 18:44:10;;;;;;;11.43;6.70;;;;;;;4.80;44.74;102810.72;4994645;28;20046;-80
2022/03/21 18:46:37;;;;;;;11.97;6.63;;;;;;;4.76;44.75;102809.69;4973966;28;20045;-82
2022/03/21 18:49:04;;;;;;;9.67;6.20;;;;;;;4.76;44.26;102820.19;4992268;28;20050;-82
2022/03/21 18:51:30;;;;;;;12.97;7.67;;;;;;;4.59;43.77;102820.38;4987265;28;20051;-82
2022/03/21 18:53:57;;;;;;;10.20;6.90;;;;;;;4.49;44.82;102822.63;4976996;28;20452;-81
2022/03/21 18:56:24;;;;;;;10.87;7.00;;;;;;;4.45;45.51;102825.06;4996902;28;20046;-82
2022/03/21 18:58:50;;;;;;;11.40;6.87;;;;;;;4.33;45.77;102829.81;4976287;28;20054;-81
2022/03/21 19:01:17;;;;;;;9.43;6.07;;;;;;;4.32;45.75;102833.28;4977583;28;20052;-82
2022/03/21 19:03:46;;;;;;;12.70;8.00;;;;;;;4.17;45.15;102833.53;4978328;28;20038;-82
2022/03/21 19:06:13;;;;;;;9.60;6.33;;;;;;;4.20;45.59;102831.03;4981561;28;20069;-82
2022/03/21 19:08:40;;;;;;;11.87;7.23;;;;;;;4.20;46.00;102825.81;4979550;28;20041;-81
2022/03/21 19:11:07;;;;;;;10.47;6.47;;;;;;;4.11;46.85;102830.69;4959489;28;20508;-83
2022/03/21 19:13:33;;;;;;;10.07;7.43;;;;;;;4.08;47.45;102841.03;4969935;28;20047;-81
2022/03/21 19:16:00;;;;;;;11.57;7.00;;;;;;;3.99;47.76;102843.25;4961487;28;20056;-86
2022/03/21 19:18:27;;;;;;;9.77;7.10;;;;;;;3.81;48.62;102835.56;4972975;28;20046;-80
2022/03/21 19:20:54;;;;;;;9.73;6.30;;;;;;;3.77;48.57;102838.84;4978595;28;20509;-82
2022/03/21 19:23:20;;;;;;;9.77;6.40;;;;;;;3.64;49.09;102833.13;4987972;28;20177;-84
2022/03/21 19:25:47;;;;;;;13.10;7.13;;;;;;;3.58;49.82;102837.19;4974913;28;20413;-84
2022/03/21 19:28:14;;;;;;;10.07;6.30;;;;;;;3.63;49.00;102831.34;4975440;28;20042;-82
2022/03/21 19:30:43;;;;;;;10.27;6.83;;;;;;;3.59;49.20;102839.84;4959492;28;20042;-84
2022/03/21 19:33:11;;;;;;;11.17;7.77;;;;;;;3.50;49.83;102841.19;4962591;28;20046;-82
2022/03/21 19:35:37;;;;;;;10.37;6.87;;;;;;;3.29;50.48;102841.16;4964614;28;20076;-83
2022/03/21 19:38:04;;;;;;;11.00;5.93;;;;;;;3.15;50.73;102845.75;4980004;28;20046;-81
2022/03/21 19:40:37;;;;;;;11.17;7.27;;;;;;;3.15;51.37;102848.38;4970361;28;20116;-83
2022/03/21 19:43:05;;;;;;;10.63;6.87;;;;;;;3.15;51.57;102848.38;4962993;28;20049;-79
2022/03/21 19:45:35;;;;;;;8.23;6.00;;;;;;;3.05;51.72;102844.44;4962259;28;20074;-81
2022/03/21 19:48:05;;;;;;;10.90;7.00;;;;;;;2.97;52.06;102851.03;4962719;28;20050;-81
2022/03/21 19:50:32;;;;;;;8.43;6.40;;;;;;;2.96;52.41;102861.44;4947988;28;20049;-81
2022/03/21 19:52:59;;;;;;;9.63;6.77;;;;;;;2.80;52.57;102863.31;4976004;28;20042;-81
2022/03/21 19:55:29;;;;;;;11.50;7.63;;;;;;;2.83;53.20;102853.00;4961682;28;20105;-83
2022/03/21 19:57:55;;;;;;;10.27;6.83;;;;;;;2.81;54.07;102859.00;4977916;28;20046;-83
2022/03/21 20:00:23;;;;;;;10.07;6.90;;;;;;;2.73;53.33;102865.56;4961974;28;20045;-85
2022/03/21 20:02:51;;;;;;;11.20;7.40;;;;;;;2.68;52.46;102860.13;4963811;28;20092;-82
2022/03/21 20:05:38;;;;;;;11.60;7.17;;;;;;;2.65;51.87;102861.72;4984997;28;20045;-84
2022/03/21 20:08:05;;;;;;;13.30;8.63;;;;;;;2.53;51.83;102867.25;4976993;28;20049;-83
2022/03/21 20:10:39;;;;;;;12.73;7.00;;;;;;;2.56;51.08;102866.50;4993178;28;20049;-83
2022/03/21 20:13:06;;;;;;;12.70;8.23;;;;;;;2.43;51.36;102868.50;4957974;28;20049;-83
2022/03/21 20:15:32;;;;;;;10.77;7.47;;;;;;;2.32;52.01;102866.22;4975741;28;20104;-83
2022/03/21 20:17:59;;;;;;;14.03;7.83;;;;;;;2.28;51.63;102861.69;4974925;28;20041;-84
2022/03/21 20:20:26;;;;;;;12.77;7.70;;;;;;;2.26;52.28;102864.19;4958502;28;20460;-83
2022/03/21 20:22:54;;;;;;;10.20;7.00;;;;;;;2.22;53.19;102864.88;4972356;28;20052;-83
2022/03/21 20:25:20;;;;;;;11.63;7.53;;;;;;;2.11;54.33;102863.47;4973962;28;20595;-83
2022/03/21 20:27:47;;;;;;;10.33;6.43;;;;;;;1.98;54.93;102867.16;4995855;28;20042;-84
2022/03/21 20:30:14;;;;;;;10.37;7.40;;;;;;;2.00;54.97;102864.63;4960083;28;20039;-84
2022/03/21 20:32:41;;;;;;;9.70;6.80;;;;;;;2.05;54.94;102860.53;4996179;28;20153;-85